sensor_id;sensor_type;location;lat;lon;timestamp;pressure;altitude;pressure_sealevel;temperature;humidity
57990;BME280;58373;51.824;5.564;2024-03-25T00:01:57;100706.69;;;4.18;100.00
57990;BME280;58373;51.824;5.564;2024-03-25T00:04:22;100705.88;;;4.18;100.00
57990;BME280;58373;51.824;5.564;2024-03-25T00:06:48;100700.84;;;4.16;100.00
57990;BME280;58373;51.824;5.564;2024-03-25T00:09:13;100706.88;;;4.15;100.00
57990;BME280;58373;51.824;5.564;2024-03-25T00:11:39;100705.25;;;4.14;100.00
57990;BME280;58373;51.824;5.564;2024-03-25T00:14:05;100712.19;;;4.12;100.00
57990;BME280;58373;51.824;5.564;2024-03-25T00:16:30;100703.75;;;4.10;100.00
57990;BME280;58373;51.824;5.564;2024-03-25T00:18:55;100698.63;;;4.10;100.00
57990;BME280;58373;51.824;5.564;2024-03-25T00:21:20;100693.47;;;4.10;100.00
57990;BME280;58373;51.824;5.564;2024-03-25T00:23:46;100698.81;;;4.07;100.00
57990;BME280;58373;51.824;5.564;2024-03-25T00:26:11;100693.84;;;4.04;100.00
57990;BME280;58373;51.824;5.564;2024-03-25T00:28:36;100693.09;;;4.02;100.00
57990;BME280;58373;51.824;5.564;2024-03-25T00:31:02;100684.66;;;4.00;100.00
57990;BME280;58373;51.824;5.564;2024-03-25T00:33:27;100686.22;;;4.03;100.00
57990;BME280;58373;51.824;5.564;2024-03-25T00:35:52;100683.72;;;4.01;100.00
57990;BME280;58373;51.824;5.564;2024-03-25T00:38:17;100687.22;;;4.00;100.00
57990;BME280;58373;51.824;5.564;2024-03-25T00:40:43;100683.91;;;3.98;100.00
57990;BME280;58373;51.824;5.564;2024-03-25T00:43:08;100685.91;;;3.93;100.00
57990;BME280;58373;51.824;5.564;2024-03-25T00:45:33;100687.75;;;3.91;100.00
57990;BME280;58373;51.824;5.564;2024-03-25T00:47:58;100687.91;;;3.88;100.00
57990;BME280;58373;51.824;5.564;2024-03-25T00:50:24;100689.75;;;3.86;100.00
57990;BME280;58373;51.824;5.564;2024-03-25T00:52:49;100680.41;;;3.85;100.00
57990;BME280;58373;51.824;5.564;2024-03-25T00:55:18;100691.00;;;3.79;100.00
57990;BME280;58373;51.824;5.564;2024-03-25T00:57:44;100684.28;;;3.76;100.00
57990;BME280;58373;51.824;5.564;2024-03-25T01:00:09;100692.06;;;3.75;100.00
57990;BME280;58373;51.824;5.564;2024-03-25T01:02:35;100694.22;;;3.66;100.00
57990;BME280;58373;51.824;5.564;2024-03-25T01:05:00;100687.63;;;3.62;100.00
57990;BME280;58373;51.824;5.564;2024-03-25T01:07:25;100703.00;;;3.62;100.00
57990;BME280;58373;51.824;5.564;2024-03-25T01:09:50;100700.00;;;3.54;100.00
57990;BME280;58373;51.824;5.564;2024-03-25T01:12:16;100701.84;;;3.52;100.00
57990;BME280;58373;51.824;5.564;2024-03-25T01:14:41;100698.53;;;3.50;100.00
57990;BME280;58373;51.824;5.564;2024-03-25T01:17:06;100699.63;;;3.46;100.00
57990;BME280;58373;51.824;5.564;2024-03-25T01:19:31;100698.84;;;3.44;100.00
57990;BME280;58373;51.824;5.564;2024-03-25T01:21:56;100702.34;;;3.43;100.00
57990;BME280;58373;51.824;5.564;2024-03-25T01:24:21;100704.16;;;3.41;100.00
57990;BME280;58373;51.824;5.564;2024-03-25T01:26:47;100706.81;;;3.39;100.00
57990;BME280;58373;51.824;5.564;2024-03-25T01:29:12;100706.00;;;3.39;100.00
57990;BME280;58373;51.824;5.564;2024-03-25T01:31:37;100702.66;;;3.37;100.00
57990;BME280;58373;51.824;5.564;2024-03-25T01:34:03;100707.06;;;3.35;100.00
57990;BME280;58373;51.824;5.564;2024-03-25T01:36:28;100701.94;;;3.35;100.00
57990;BME280;58373;51.824;5.564;2024-03-25T01:38:53;100702.75;;;3.35;100.00
57990;BME280;58373;51.824;5.564;2024-03-25T01:41:20;100702.84;;;3.34;100.00
57990;BME280;58373;51.824;5.564;2024-03-25T01:43:45;100700.19;;;3.35;100.00
57990;BME280;58373;51.824;5.564;2024-03-25T01:46:11;100701.19;;;3.33;100.00
57990;BME280;58373;51.824;5.564;2024-03-25T01:48:36;100702.84;;;3.34;100.00
57990;BME280;58373;51.824;5.564;2024-03-25T01:51:01;100705.47;;;3.32;100.00
57990;BME280;58373;51.824;5.564;2024-03-25T01:53:27;100708.28;;;3.28;100.00
57990;BME280;58373;51.824;5.564;2024-03-25T01:55:54;100712.66;;;3.26;100.00
57990;BME280;58373;51.824;5.564;2024-03-25T01:58:21;100711.91;;;3.24;100.00
57990;BME280;58373;51.824;5.564;2024-03-25T02:00:46;100710.28;;;3.23;100.00
57990;BME280;58373;51.824;5.564;2024-03-25T02:03:12;100710.31;;;3.21;100.00
57990;BME280;58373;51.824;5.564;2024-03-25T02:05:37;100710.41;;;3.19;100.00
57990;BME280;58373;51.824;5.564;2024-03-25T02:08:03;100704.66;;;3.16;100.00
57990;BME280;58373;51.824;5.564;2024-03-25T02:10:28;100706.44;;;3.14;100.00
57990;BME280;58373;51.824;5.564;2024-03-25T02:12:54;100698.84;;;3.12;100.00
57990;BME280;58373;51.824;5.564;2024-03-25T02:15:20;100706.69;;;3.09;100.00
57990;BME280;58373;51.824;5.564;2024-03-25T02:17:45;100708.50;;;3.07;100.00
57990;BME280;58373;51.824;5.564;2024-03-25T02:20:10;100708.59;;;3.06;100.00
57990;BME280;58373;51.824;5.564;2024-03-25T02:22:36;100704.28;;;3.06;100.00
57990;BME280;58373;51.824;5.564;2024-03-25T02:25:05;100707.00;;;3.03;100.00
57990;BME280;58373;51.824;5.564;2024-03-25T02:27:31;100709.75;;;3.00;100.00
57990;BME280;58373;51.824;5.564;2024-03-25T02:30:09;100711.25;;;3.04;100.00
57990;BME280;58373;51.824;5.564;2024-03-25T02:32:37;100700.22;;;3.02;100.00
57990;BME280;58373;51.824;5.564;2024-03-25T02:35:03;100704.44;;;3.03;100.00
57990;BME280;58373;51.824;5.564;2024-03-25T02:37:29;100701.00;;;3.04;100.00
57990;BME280;58373;51.824;5.564;2024-03-25T02:39:55;100705.13;;;3.07;100.00
57990;BME280;58373;51.824;5.564;2024-03-25T02:42:21;100704.28;;;3.06;100.00
57990;BME280;58373;51.824;5.564;2024-03-25T02:44:46;100702.47;;;3.08;100.00
57990;BME280;58373;51.824;5.564;2024-03-25T02:47:11;100698.16;;;3.09;100.00
57990;BME280;58373;51.824;5.564;2024-03-25T02:49:36;100694.63;;;3.11;100.00
57990;BME280;58373;51.824;5.564;2024-03-25T02:52:02;100697.84;;;3.15;100.00
57990;BME280;58373;51.824;5.564;2024-03-25T02:54:27;100702.81;;;3.18;100.00
57990;BME280;58373;51.824;5.564;2024-03-25T02:56:52;100691.56;;;3.20;100.00
57990;BME280;58373;51.824;5.564;2024-03-25T02:59:17;100689.78;;;3.23;100.00
57990;BME280;58373;51.824;5.564;2024-03-25T03:01:42;100688.84;;;3.24;100.00
57990;BME280;58373;51.824;5.564;2024-03-25T03:04:08;100693.06;;;3.25;100.00
57990;BME280;58373;51.824;5.564;2024-03-25T03:06:33;100687.94;;;3.25;100.00
57990;BME280;58373;51.824;5.564;2024-03-25T03:08:58;100684.66;;;3.23;100.00
57990;BME280;58373;51.824;5.564;2024-03-25T03:11:23;100686.28;;;3.24;100.00
57990;BME280;58373;51.824;5.564;2024-03-25T03:13:48;100684.78;;;3.19;100.00
57990;BME280;58373;51.824;5.564;2024-03-25T03:16:14;100684.19;;;3.14;100.00
57990;BME280;58373;51.824;5.564;2024-03-25T03:18:39;100686.94;;;3.11;100.00
57990;BME280;58373;51.824;5.564;2024-03-25T03:21:04;100690.47;;;3.09;100.00
57990;BME280;58373;51.824;5.564;2024-03-25T03:23:29;100695.69;;;3.07;100.00
57990;BME280;58373;51.824;5.564;2024-03-25T03:25:55;100683.06;;;3.04;100.00
57990;BME280;58373;51.824;5.564;2024-03-25T03:28:22;100687.28;;;3.05;100.00
57990;BME280;58373;51.824;5.564;2024-03-25T03:30:47;100680.50;;;3.04;100.00
57990;BME280;58373;51.824;5.564;2024-03-25T03:33:12;100681.31;;;3.05;100.00
57990;BME280;58373;51.824;5.564;2024-03-25T03:35:37;100683.13;;;3.03;100.00
57990;BME280;58373;51.824;5.564;2024-03-25T03:38:05;100680.66;;;3.01;100.00
57990;BME280;58373;51.824;5.564;2024-03-25T03:40:31;100684.13;;;3.00;100.00
57990;BME280;58373;51.824;5.564;2024-03-25T03:42:57;100674.78;;;2.99;100.00
57990;BME280;58373;51.824;5.564;2024-03-25T03:45:24;100672.22;;;2.99;100.00
57990;BME280;58373;51.824;5.564;2024-03-25T03:47:49;100672.22;;;2.99;100.00
57990;BME280;58373;51.824;5.564;2024-03-25T03:50:14;100671.47;;;2.97;100.00
57990;BME280;58373;51.824;5.564;2024-03-25T03:52:39;100665.75;;;2.92;100.00
57990;BME280;58373;51.824;5.564;2024-03-25T03:55:05;100660.63;;;2.92;100.00
57990;BME280;58373;51.824;5.564;2024-03-25T03:57:31;100669.22;;;2.91;100.00
57990;BME280;58373;51.824;5.564;2024-03-25T03:59:59;100672.88;;;2.87;100.00
57990;BME280;58373;51.824;5.564;2024-03-25T04:02:24;100671.19;;;2.86;100.00
57990;BME280;58373;51.824;5.564;2024-03-25T04:04:50;100672.19;;;2.83;100.00
57990;BME280;58373;51.824;5.564;2024-03-25T04:07:18;100682.56;;;2.80;100.00
57990;BME280;58373;51.824;5.564;2024-03-25T04:09:43;100668.22;;;2.78;100.00
57990;BME280;58373;51.824;5.564;2024-03-25T04:12:09;100683.72;;;2.75;100.00
57990;BME280;58373;51.824;5.564;2024-03-25T04:14:34;100689.94;;;2.71;100.00
57990;BME280;58373;51.824;5.564;2024-03-25T04:16:59;100684.84;;;2.69;100.00
57990;BME280;58373;51.824;5.564;2024-03-25T04:19:25;100684.81;;;2.71;100.00
57990;BME280;58373;51.824;5.564;2024-03-25T04:21:50;100685.72;;;2.70;100.00
57990;BME280;58373;51.824;5.564;2024-03-25T04:24:16;100690.66;;;2.73;100.00
57990;BME280;58373;51.824;5.564;2024-03-25T04:26:41;100683.72;;;2.75;100.00
57990;BME280;58373;51.824;5.564;2024-03-25T04:29:06;100680.28;;;2.76;100.00
57990;BME280;58373;51.824;5.564;2024-03-25T04:31:31;100681.94;;;2.77;100.00
57990;BME280;58373;51.824;5.564;2024-03-25T04:33:56;100681.94;;;2.77;100.00
57990;BME280;58373;51.824;5.564;2024-03-25T04:36:21;100677.78;;;2.74;100.00
57990;BME280;58373;51.824;5.564;2024-03-25T04:38:47;100681.34;;;2.72;100.00
57990;BME280;58373;51.824;5.564;2024-03-25T04:41:12;100682.97;;;2.73;100.00
57990;BME280;58373;51.824;5.564;2024-03-25T04:43:37;100683.88;;;2.72;100.00
57990;BME280;58373;51.824;5.564;2024-03-25T04:46:02;100682.25;;;2.71;100.00
57990;BME280;58373;51.824;5.564;2024-03-25T04:48:28;100678.91;;;2.69;100.00
57990;BME280;58373;51.824;5.564;2024-03-25T04:50:55;100682.56;;;2.64;100.00
57990;BME280;58373;51.824;5.564;2024-03-25T04:53:21;100678.41;;;2.62;100.00
57990;BME280;58373;51.824;5.564;2024-03-25T04:55:46;100686.91;;;2.62;100.00
57990;BME280;58373;51.824;5.564;2024-03-25T04:58:11;100684.34;;;2.62;100.00
57990;BME280;58373;51.824;5.564;2024-03-25T05:00:36;100678.41;;;2.62;100.00
57990;BME280;58373;51.824;5.564;2024-03-25T05:03:01;100682.88;;;2.58;100.00
57990;BME280;58373;51.824;5.564;2024-03-25T05:05:27;100676.25;;;2.54;100.00
57990;BME280;58373;51.824;5.564;2024-03-25T05:07:52;100684.66;;;2.56;100.00
57990;BME280;58373;51.824;5.564;2024-03-25T05:10:17;100686.47;;;2.54;100.00
57990;BME280;58373;51.824;5.564;2024-03-25T05:12:42;100681.50;;;2.51;100.00
57990;BME280;58373;51.824;5.564;2024-03-25T05:15:09;100689.19;;;2.51;100.00
57990;BME280;58373;51.824;5.564;2024-03-25T05:17:34;100693.47;;;2.51;100.00
57990;BME280;58373;51.824;5.564;2024-03-25T05:19:59;100700.34;;;2.50;100.00
57990;BME280;58373;51.824;5.564;2024-03-25T05:22:24;100698.81;;;2.46;100.00
57990;BME280;58373;51.824;5.564;2024-03-25T05:24:50;100707.56;;;2.42;100.00
57990;BME280;58373;51.824;5.564;2024-03-25T05:27:15;100707.72;;;2.39;100.00
57990;BME280;58373;51.824;5.564;2024-03-25T05:29:40;100717.94;;;2.39;100.00
57990;BME280;58373;51.824;5.564;2024-03-25T05:32:05;100720.59;;;2.37;100.00
57990;BME280;58373;51.824;5.564;2024-03-25T05:34:31;100713.88;;;2.35;100.00
57990;BME280;58373;51.824;5.564;2024-03-25T05:36:59;100718.13;;;2.36;100.00
57990;BME280;58373;51.824;5.564;2024-03-25T05:39:25;100718.25;;;2.33;100.00
57990;BME280;58373;51.824;5.564;2024-03-25T05:41:50;100720.00;;;2.32;100.00
57990;BME280;58373;51.824;5.564;2024-03-25T05:44:15;100714.78;;;2.34;100.00
57990;BME280;58373;51.824;5.564;2024-03-25T05:46:40;100717.28;;;2.35;100.00
57990;BME280;58373;51.824;5.564;2024-03-25T05:49:06;100707.88;;;2.36;100.00
57990;BME280;58373;51.824;5.564;2024-03-25T05:51:31;100714.66;;;2.37;100.00
57990;BME280;58373;51.824;5.564;2024-03-25T05:53:58;100717.22;;;2.37;100.00
57990;BME280;58373;51.824;5.564;2024-03-25T05:56:23;100715.47;;;2.37;100.00
57990;BME280;58373;51.824;5.564;2024-03-25T05:58:49;100709.63;;;2.35;100.00
57990;BME280;58373;51.824;5.564;2024-03-25T06:01:15;100711.31;;;2.35;100.00
57990;BME280;58373;51.824;5.564;2024-03-25T06:03:40;100697.66;;;2.36;100.00
57990;BME280;58373;51.824;5.564;2024-03-25T06:06:05;100698.47;;;2.36;100.00
57990;BME280;58373;51.824;5.564;2024-03-25T06:08:30;100699.22;;;2.38;100.00
57990;BME280;58373;51.824;5.564;2024-03-25T06:11:00;100696.66;;;2.38;100.00
57990;BME280;58373;51.824;5.564;2024-03-25T06:13:25;100690.63;;;2.39;100.00
57990;BME280;58373;51.824;5.564;2024-03-25T06:15:50;100683.78;;;2.40;100.00
57990;BME280;58373;51.824;5.564;2024-03-25T06:18:16;100687.16;;;2.40;100.00
57990;BME280;58373;51.824;5.564;2024-03-25T06:20:41;100692.22;;;2.42;100.00
57990;BME280;58373;51.824;5.564;2024-03-25T06:23:06;100685.38;;;2.43;100.00
57990;BME280;58373;51.824;5.564;2024-03-25T06:25:31;100696.44;;;2.43;100.00
57990;BME280;58373;51.824;5.564;2024-03-25T06:27:58;100690.41;;;2.44;100.00
57990;BME280;58373;51.824;5.564;2024-03-25T06:30:23;100683.63;;;2.43;100.00
57990;BME280;58373;51.824;5.564;2024-03-25T06:33:07;100686.19;;;2.43;100.00
57990;BME280;58373;51.824;5.564;2024-03-25T06:35:51;100687.69;;;2.47;100.00
57990;BME280;58373;51.824;5.564;2024-03-25T06:38:20;100680.91;;;2.46;100.00
57990;BME280;58373;51.824;5.564;2024-03-25T06:40:45;100674.22;;;2.44;100.00
57990;BME280;58373;51.824;5.564;2024-03-25T06:43:11;100681.97;;;2.42;100.00
57990;BME280;58373;51.824;5.564;2024-03-25T06:45:36;100680.34;;;2.41;100.00
57990;BME280;58373;51.824;5.564;2024-03-25T06:48:01;100683.78;;;2.40;100.00
57990;BME280;58373;51.824;5.564;2024-03-25T06:50:26;100688.75;;;2.43;100.00
57990;BME280;58373;51.824;5.564;2024-03-25T06:52:51;100683.63;;;2.43;100.00
57990;BME280;58373;51.824;5.564;2024-03-25T06:55:17;100686.03;;;2.46;100.00
57990;BME280;58373;51.824;5.564;2024-03-25T06:57:47;100681.59;;;2.50;100.00
57990;BME280;58373;51.824;5.564;2024-03-25T07:00:12;100683.00;;;2.55;100.00
57990;BME280;58373;51.824;5.564;2024-03-25T07:02:38;100681.03;;;2.60;100.00
57990;BME280;58373;51.824;5.564;2024-03-25T07:05:03;100673.97;;;2.65;100.00
57990;BME280;58373;51.824;5.564;2024-03-25T07:07:29;100683.88;;;2.72;100.00
57990;BME280;58373;51.824;5.564;2024-03-25T07:09:54;100690.34;;;2.79;100.00
57990;BME280;58373;51.824;5.564;2024-03-25T07:12:19;100690.78;;;2.87;100.00
57990;BME280;58373;51.824;5.564;2024-03-25T07:14:45;100685.25;;;2.95;100.00
57990;BME280;58373;51.824;5.564;2024-03-25T07:17:10;100674.59;;;3.02;100.00
57990;BME280;58373;51.824;5.564;2024-03-25T07:19:35;100686.13;;;3.11;100.00
57990;BME280;58373;51.824;5.564;2024-03-25T07:22:01;100674.53;;;3.19;100.00
57990;BME280;58373;51.824;5.564;2024-03-25T07:24:26;100674.06;;;3.29;100.00
57990;BME280;58373;51.824;5.564;2024-03-25T07:26:51;100680.34;;;3.39;100.00
57990;BME280;58373;51.824;5.564;2024-03-25T07:29:16;100672.91;;;3.50;100.00
57990;BME280;58373;51.824;5.564;2024-03-25T07:31:41;100668.03;;;3.61;100.00
57990;BME280;58373;51.824;5.564;2024-03-25T07:34:07;100671.66;;;3.73;100.00
57990;BME280;58373;51.824;5.564;2024-03-25T07:36:32;100671.00;;;3.84;100.00
57990;BME280;58373;51.824;5.564;2024-03-25T07:39:00;100677.28;;;3.94;100.00
57990;BME280;58373;51.824;5.564;2024-03-25T07:41:25;100671.56;;;4.05;100.00
57990;BME280;58373;51.824;5.564;2024-03-25T07:43:50;100675.16;;;4.16;100.00
57990;BME280;58373;51.824;5.564;2024-03-25T07:46:15;100673.72;;;4.26;100.00
57990;BME280;58373;51.824;5.564;2024-03-25T07:48:40;100671.38;;;4.38;100.00
57990;BME280;58373;51.824;5.564;2024-03-25T07:51:07;100679.28;;;4.49;100.00
57990;BME280;58373;51.824;5.564;2024-03-25T07:53:32;100679.47;;;4.60;100.00
57990;BME280;58373;51.824;5.564;2024-03-25T07:55:57;100678.00;;;4.70;100.00
57990;BME280;58373;51.824;5.564;2024-03-25T07:58:22;100680.75;;;4.82;100.00
57990;BME280;58373;51.824;5.564;2024-03-25T08:00:48;100680.19;;;4.91;100.00
57990;BME280;58373;51.824;5.564;2024-03-25T08:03:13;100682.13;;;5.01;100.00
57990;BME280;58373;51.824;5.564;2024-03-25T08:05:38;100687.53;;;5.11;100.00
57990;BME280;58373;51.824;5.564;2024-03-25T08:08:04;100693.75;;;5.21;100.00
57990;BME280;58373;51.824;5.564;2024-03-25T08:10:29;100697.53;;;5.30;100.00
57990;BME280;58373;51.824;5.564;2024-03-25T08:12:54;100690.97;;;5.39;100.00
57990;BME280;58373;51.824;5.564;2024-03-25T08:15:19;100695.72;;;5.45;100.00
57990;BME280;58373;51.824;5.564;2024-03-25T08:17:44;100693.41;;;5.54;100.00
57990;BME280;58373;51.824;5.564;2024-03-25T08:20:10;100696.44;;;5.61;100.00
57990;BME280;58373;51.824;5.564;2024-03-25T08:22:35;100691.53;;;5.71;100.00
57990;BME280;58373;51.824;5.564;2024-03-25T08:25:00;100696.19;;;5.78;100.00
57990;BME280;58373;51.824;5.564;2024-03-25T08:27:25;100696.31;;;5.90;100.00
57990;BME280;58373;51.824;5.564;2024-03-25T08:29:51;100701.94;;;5.96;100.00
57990;BME280;58373;51.824;5.564;2024-03-25T08:32:18;100699.59;;;6.06;100.00
57990;BME280;58373;51.824;5.564;2024-03-25T08:34:43;100702.72;;;6.11;100.00
57990;BME280;58373;51.824;5.564;2024-03-25T08:37:08;100705.28;;;6.11;100.00
57990;BME280;58373;51.824;5.564;2024-03-25T08:39:34;100694.41;;;6.20;100.00
57990;BME280;58373;51.824;5.564;2024-03-25T08:41:59;100701.50;;;6.29;100.00
57990;BME280;58373;51.824;5.564;2024-03-25T08:44:24;100692.75;;;6.32;100.00
57990;BME280;58373;51.824;5.564;2024-03-25T08:46:49;100691.31;;;6.41;100.00
57990;BME280;58373;51.824;5.564;2024-03-25T08:49:15;100692.34;;;6.51;100.00
57990;BME280;58373;51.824;5.564;2024-03-25T08:51:40;100689.19;;;6.60;100.00
57990;BME280;58373;51.824;5.564;2024-03-25T08:54:05;100691.75;;;6.73;100.00
57990;BME280;58373;51.824;5.564;2024-03-25T08:56:30;100684.94;;;6.72;100.00
57990;BME280;58373;51.824;5.564;2024-03-25T08:58:55;100678.34;;;6.80;100.00
57990;BME280;58373;51.824;5.564;2024-03-25T09:01:22;100682.88;;;6.89;100.00
57990;BME280;58373;51.824;5.564;2024-03-25T09:03:49;100680.81;;;6.95;100.00
57990;BME280;58373;51.824;5.564;2024-03-25T09:06:14;100674.69;;;7.08;100.00
57990;BME280;58373;51.824;5.564;2024-03-25T09:08:41;100672.31;;;7.18;100.00
57990;BME280;58373;51.824;5.564;2024-03-25T09:11:25;100673.50;;;7.25;100.00
57990;BME280;58373;51.824;5.564;2024-03-25T09:13:51;100678.03;;;7.34;100.00
57990;BME280;58373;51.824;5.564;2024-03-25T09:16:16;100674.28;;;7.38;100.00
57990;BME280;58373;51.824;5.564;2024-03-25T09:18:42;100684.19;;;7.44;100.00
57990;BME280;58373;51.824;5.564;2024-03-25T09:21:07;100675.53;;;7.45;100.00
57990;BME280;58373;51.824;5.564;2024-03-25T09:23:32;100678.56;;;7.51;100.00
57990;BME280;58373;51.824;5.564;2024-03-25T09:25:57;100681.66;;;7.56;100.00
57990;BME280;58373;51.824;5.564;2024-03-25T09:28:22;100672.56;;;7.63;100.00
57990;BME280;58373;51.824;5.564;2024-03-25T09:30:48;100665.09;;;7.71;100.00
57990;BME280;58373;51.824;5.564;2024-03-25T09:33:13;100657.38;;;7.82;100.00
57990;BME280;58373;51.824;5.564;2024-03-25T09:35:38;100663.28;;;7.95;100.00
57990;BME280;58373;51.824;5.564;2024-03-25T09:38:04;100662.84;;;8.02;100.00
57990;BME280;58373;51.824;5.564;2024-03-25T09:40:29;100669.66;;;8.03;100.00
57990;BME280;58373;51.824;5.564;2024-03-25T09:42:57;100649.59;;;8.06;100.00
57990;BME280;58373;51.824;5.564;2024-03-25T09:45:25;100652.53;;;8.13;100.00
57990;BME280;58373;51.824;5.564;2024-03-25T09:47:51;100653.97;;;8.17;100.00
57990;BME280;58373;51.824;5.564;2024-03-25T09:50:16;100647.16;;;8.16;100.00
57990;BME280;58373;51.824;5.564;2024-03-25T09:52:44;100640.13;;;8.18;100.00
57990;BME280;58373;51.824;5.564;2024-03-25T09:55:10;100636.50;;;8.20;100.00
57990;BME280;58373;51.824;5.564;2024-03-25T09:57:35;100642.47;;;8.21;100.00
57990;BME280;58373;51.824;5.564;2024-03-25T10:00:00;100640.81;;;8.20;100.00
57990;BME280;58373;51.824;5.564;2024-03-25T10:02:26;100640.34;;;8.15;100.00
57990;BME280;58373;51.824;5.564;2024-03-25T10:04:53;100635.06;;;8.16;100.00
57990;BME280;58373;51.824;5.564;2024-03-25T10:07:24;100628.38;;;8.25;100.00
57990;BME280;58373;51.824;5.564;2024-03-25T10:09:50;100626.72;;;8.24;100.00
57990;BME280;58373;51.824;5.564;2024-03-25T10:12:15;100620.16;;;8.20;100.00
57990;BME280;58373;51.824;5.564;2024-03-25T10:14:40;100617.69;;;8.18;100.00
57990;BME280;58373;51.824;5.564;2024-03-25T10:17:06;100623.44;;;8.22;100.00
57990;BME280;58373;51.824;5.564;2024-03-25T10:19:32;100614.28;;;8.29;100.00
57990;BME280;58373;51.824;5.564;2024-03-25T10:22:16;100618.19;;;8.35;100.00
57990;BME280;58373;51.824;5.564;2024-03-25T10:24:41;100611.06;;;8.49;100.00
57990;BME280;58373;51.824;5.564;2024-03-25T10:27:10;100605.44;;;8.56;100.00
57990;BME280;58373;51.824;5.564;2024-03-25T10:29:36;100600.25;;;8.67;100.00
57990;BME280;58373;51.824;5.564;2024-03-25T10:32:01;100604.00;;;8.74;100.00
57990;BME280;58373;51.824;5.564;2024-03-25T10:34:29;100600.47;;;8.75;99.26
57990;BME280;58373;51.824;5.564;2024-03-25T10:36:56;100601.91;;;8.79;100.00
57990;BME280;58373;51.824;5.564;2024-03-25T10:39:21;100597.66;;;8.89;100.00
57990;BME280;58373;51.824;5.564;2024-03-25T10:41:50;100597.19;;;8.95;99.83
57990;BME280;58373;51.824;5.564;2024-03-25T10:44:15;100599.75;;;9.07;97.57
57990;BME280;58373;51.824;5.564;2024-03-25T10:46:41;100590.56;;;9.02;98.64
57990;BME280;58373;51.824;5.564;2024-03-25T10:49:31;100583.50;;;9.04;97.19
57990;BME280;58373;51.824;5.564;2024-03-25T10:51:52;100581.38;;;9.10;97.83
57990;BME280;58373;51.824;5.564;2024-03-25T10:54:18;100591.38;;;9.14;97.02
57990;BME280;58373;51.824;5.564;2024-03-25T10:56:43;100581.59;;;9.18;97.15
57990;BME280;58373;51.824;5.564;2024-03-25T10:59:08;100578.28;;;9.16;89.45
57990;BME280;58373;51.824;5.564;2024-03-25T11:01:35;100579.72;;;9.20;94.41
57990;BME280;58373;51.824;5.564;2024-03-25T11:04:00;100578.88;;;9.19;87.00
57990;BME280;58373;51.824;5.564;2024-03-25T11:06:25;100569.09;;;9.23;93.07
57990;BME280;58373;51.824;5.564;2024-03-25T11:08:58;100568.88;;;9.26;93.79
57990;BME280;58373;51.824;5.564;2024-03-25T11:11:23;100572.13;;;9.28;89.63
57990;BME280;58373;51.824;5.564;2024-03-25T11:13:48;100565.31;;;9.27;91.71
57990;BME280;58373;51.824;5.564;2024-03-25T11:16:14;100567.28;;;9.35;93.28
57990;BME280;58373;51.824;5.564;2024-03-25T11:18:39;100563.50;;;9.39;90.52
57990;BME280;58373;51.824;5.564;2024-03-25T11:21:06;100565.75;;;9.43;91.43
57990;BME280;58373;51.824;5.564;2024-03-25T11:23:40;100563.97;;;9.44;86.03
57990;BME280;58373;51.824;5.564;2024-03-25T11:26:16;100561.69;;;9.50;89.21
57990;BME280;58373;51.824;5.564;2024-03-25T11:28:41;100557.66;;;9.57;88.53
57990;BME280;58373;51.824;5.564;2024-03-25T11:31:06;100551.50;;;9.70;89.04
57990;BME280;58373;51.824;5.564;2024-03-25T11:33:33;100546.06;;;9.73;87.98
57990;BME280;58373;51.824;5.564;2024-03-25T11:36:01;100548.72;;;9.82;88.71
57990;BME280;58373;51.824;5.564;2024-03-25T11:38:26;100544.97;;;9.96;90.40
57990;BME280;58373;51.824;5.564;2024-03-25T11:40:52;100548.19;;;10.09;90.49
57990;BME280;58373;51.824;5.564;2024-03-25T11:43:18;100541.53;;;10.17;85.05
57990;BME280;58373;51.824;5.564;2024-03-25T11:45:46;100539.47;;;10.10;86.30
57990;BME280;58373;51.824;5.564;2024-03-25T11:48:11;100525.03;;;10.18;87.96
57990;BME280;58373;51.824;5.564;2024-03-25T11:50:38;100518.84;;;10.30;90.70
57990;BME280;58373;51.824;5.564;2024-03-25T11:53:04;100521.84;;;10.35;87.54
57990;BME280;58373;51.824;5.564;2024-03-25T11:55:30;100520.38;;;10.42;84.48
57990;BME280;58373;51.824;5.564;2024-03-25T11:57:55;100518.50;;;10.44;84.20
57990;BME280;58373;51.824;5.564;2024-03-25T12:00:24;100522.44;;;10.39;86.12
57990;BME280;58373;51.824;5.564;2024-03-25T12:02:49;100515.06;;;10.44;86.64
57990;BME280;58373;51.824;5.564;2024-03-25T12:05:14;100511.38;;;10.46;77.40
57990;BME280;58373;51.824;5.564;2024-03-25T12:07:39;100510.19;;;10.50;82.25
57990;BME280;58373;51.824;5.564;2024-03-25T12:10:05;100506.63;;;10.51;82.44
57990;BME280;58373;51.824;5.564;2024-03-25T12:12:49;100494.75;;;10.58;81.32
57990;BME280;58373;51.824;5.564;2024-03-25T12:15:15;100485.47;;;10.46;82.21
57990;BME280;58373;51.824;5.564;2024-03-25T12:17:40;100476.28;;;10.42;81.90
57990;BME280;58373;51.824;5.564;2024-03-25T12:20:06;100477.94;;;10.43;82.26
57990;BME280;58373;51.824;5.564;2024-03-25T12:22:35;100471.09;;;10.32;82.76
57990;BME280;58373;51.824;5.564;2024-03-25T12:25:01;100468.63;;;10.31;83.29
57990;BME280;58373;51.824;5.564;2024-03-25T12:27:28;100457.47;;;10.40;81.17
57990;BME280;58373;51.824;5.564;2024-03-25T12:30:11;100452.56;;;10.47;78.48
57990;BME280;58373;51.824;5.564;2024-03-25T12:32:40;100440.03;;;10.52;78.60
57990;BME280;58373;51.824;5.564;2024-03-25T12:37:35;100446.88;;;10.62;79.71
57990;BME280;58373;51.824;5.564;2024-03-25T12:40:01;100444.69;;;10.77;79.21
57990;BME280;58373;51.824;5.564;2024-03-25T12:42:27;100446.34;;;10.88;78.91
57990;BME280;58373;51.824;5.564;2024-03-25T12:44:53;100452.09;;;11.01;79.86
57990;BME280;58373;51.824;5.564;2024-03-25T12:47:19;100442.38;;;11.03;79.48